createdAt,value
2023-04-22T00:01:01.407Z,9.50
2023-04-22T00:03:29.229Z,9.50
2023-04-22T00:05:56.565Z,9.50
2023-04-22T00:08:23.580Z,9.50
2023-04-22T00:10:50.623Z,9.50
2023-04-22T00:13:17.766Z,9.50
2023-04-22T00:15:45.707Z,9.50
2023-04-22T00:18:14.254Z,9.50
2023-04-22T00:20:43.677Z,9.50
2023-04-22T00:23:11.789Z,9.50
2023-04-22T00:25:39.353Z,9.50
2023-04-22T00:28:06.730Z,9.50
2023-04-22T00:30:33.778Z,9.50
2023-04-22T00:33:00.826Z,9.50
2023-04-22T00:35:27.946Z,9.50
2023-04-22T00:37:54.899Z,9.50
2023-04-22T00:40:22.250Z,9.50
2023-04-22T00:42:50.034Z,9.50
2023-04-22T00:45:19.917Z,9.40
2023-04-22T00:47:47.561Z,9.50
2023-04-22T00:50:17.485Z,9.50
2023-04-22T00:52:44.541Z,9.50
2023-04-22T00:55:11.877Z,9.50
2023-04-22T00:57:39.589Z,9.40
2023-04-22T01:00:06.943Z,9.40
2023-04-22T01:02:34.142Z,9.50
2023-04-22T01:05:01.701Z,9.40
2023-04-22T01:07:28.870Z,9.40
2023-04-22T01:09:56.914Z,9.50
2023-04-22T01:12:23.958Z,9.50
2023-04-22T01:14:51.597Z,9.50
2023-04-22T01:17:19.583Z,9.50
2023-04-22T01:19:47.630Z,9.50
2023-04-22T01:22:15.198Z,9.40
2023-04-22T01:24:42.816Z,9.50
2023-04-22T01:29:38.430Z,9.50
2023-04-22T01:32:06.433Z,9.50
2023-04-22T01:34:33.554Z,9.40
2023-04-22T01:37:00.536Z,9.40
2023-04-22T01:39:27.658Z,9.40
2023-04-22T01:41:55.820Z,9.40
2023-04-22T01:44:22.929Z,9.50
2023-04-22T01:46:50.265Z,9.40
2023-04-22T01:49:20.335Z,9.40
2023-04-22T01:51:47.330Z,9.40
2023-04-22T01:54:15.108Z,9.40
2023-04-22T01:56:44.184Z,9.40
2023-04-22T01:59:11.361Z,9.40
2023-04-22T02:01:39.003Z,9.50
2023-04-22T02:04:06.788Z,9.40
2023-04-22T02:06:33.893Z,9.50
2023-04-22T02:09:03.432Z,9.50
2023-04-22T02:11:30.684Z,9.50
2023-04-22T02:13:57.650Z,9.50
2023-04-22T02:16:25.234Z,9.50
2023-04-22T02:18:53.056Z,9.50
2023-04-22T02:21:20.014Z,9.50
2023-04-22T02:23:46.981Z,9.50
2023-04-22T02:26:13.997Z,9.40
2023-04-22T02:28:41.714Z,9.50
2023-04-22T02:31:08.806Z,9.50
2023-04-22T02:33:36.471Z,9.50
2023-04-22T02:36:03.702Z,9.40
2023-04-22T02:38:30.831Z,9.40
2023-04-22T02:40:57.693Z,9.50
2023-04-22T02:43:25.070Z,9.50
2023-04-22T02:45:51.972Z,9.50
2023-04-22T02:48:19.334Z,9.50
2023-04-22T02:50:46.262Z,9.50
2023-04-22T02:53:13.431Z,9.50
2023-04-22T02:55:41.263Z,9.40
2023-04-22T02:58:08.967Z,9.40
2023-04-22T03:00:36.054Z,9.40
2023-04-22T03:03:03.273Z,9.40
2023-04-22T03:05:33.269Z,9.40
2023-04-22T03:08:07.294Z,9.40
2023-04-22T03:10:34.287Z,9.40
2023-04-22T03:13:01.264Z,9.30
2023-04-22T03:15:28.625Z,9.40
2023-04-22T03:17:55.703Z,9.30
2023-04-22T03:20:23.783Z,9.30
2023-04-22T03:22:50.843Z,9.40
2023-04-22T03:25:17.856Z,9.40
2023-04-22T03:27:55.728Z,9.40
2023-04-22T03:30:22.692Z,9.30
2023-04-22T03:32:49.755Z,9.40
2023-04-22T03:35:28.267Z,9.30
2023-04-22T03:37:59.173Z,9.30
2023-04-22T03:40:31.398Z,9.30
2023-04-22T03:42:59.973Z,9.30
2023-04-22T03:45:27.276Z,9.20
2023-04-22T03:48:09.288Z,9.20
2023-04-22T03:50:44.528Z,9.20
2023-04-22T03:53:11.720Z,9.20
2023-04-22T03:55:39.583Z,9.20
2023-04-22T03:58:06.766Z,9.20
2023-04-22T04:00:34.367Z,9.20
2023-04-22T04:03:09.207Z,9.20
2023-04-22T04:05:37.368Z,9.20
2023-04-22T04:08:04.325Z,9.20
2023-04-22T04:10:31.278Z,9.20
2023-04-22T04:12:59.950Z,9.20
2023-04-22T04:15:29.180Z,9.20
2023-04-22T04:17:56.819Z,9.10
2023-04-22T04:20:26.828Z,9.20
2023-04-22T04:22:53.941Z,9.20
2023-04-22T04:25:23.958Z,9.20
2023-04-22T04:27:51.951Z,9.20
2023-04-22T04:30:19.776Z,9.20
2023-04-22T04:32:51.774Z,9.20
2023-04-22T04:35:20.358Z,9.20
2023-04-22T04:37:51.616Z,9.20
2023-04-22T04:40:19.121Z,9.20
2023-04-22T04:42:57.561Z,9.20
2023-04-22T04:45:31.071Z,9.20
2023-04-22T04:48:00.686Z,9.20
2023-04-22T04:50:34.691Z,9.20
2023-04-22T04:53:02.940Z,9.20
2023-04-22T04:55:36.324Z,9.20
2023-04-22T04:58:07.956Z,9.20
2023-04-22T05:00:34.987Z,9.20
2023-04-22T05:03:02.167Z,9.20
2023-04-22T05:05:29.953Z,9.20
2023-04-22T05:07:57.802Z,9.20
2023-04-22T05:10:25.561Z,9.30
2023-04-22T05:12:53.498Z,9.20
2023-04-22T05:15:23.805Z,9.20
2023-04-22T05:17:51.492Z,9.20
2023-04-22T05:20:18.453Z,9.20
2023-04-22T05:22:46.100Z,9.20
2023-04-22T05:25:14.249Z,9.20
2023-04-22T05:27:49.567Z,9.20
2023-04-22T05:30:18.716Z,9.30
2023-04-22T05:32:45.939Z,9.20
2023-04-22T05:35:12.942Z,9.20
2023-04-22T05:37:41.723Z,9.20
2023-04-22T05:40:09.021Z,9.30
2023-04-22T05:42:36.138Z,9.20
2023-04-22T05:45:03.194Z,9.30
2023-04-22T05:47:33.772Z,9.30
2023-04-22T05:50:01.162Z,9.30
2023-04-22T05:52:36.447Z,9.30
2023-04-22T05:55:12.385Z,9.30
2023-04-22T05:57:39.801Z,9.30
2023-04-22T06:00:15.752Z,9.30
2023-04-22T06:02:50.824Z,9.30
2023-04-22T06:05:20.936Z,9.30
2023-04-22T06:07:51.372Z,9.30
2023-04-22T06:10:18.310Z,9.30
2023-04-22T06:12:45.218Z,9.30
2023-04-22T06:15:12.269Z,9.30
2023-04-22T06:17:39.591Z,9.30
2023-04-22T06:20:07.072Z,9.30
2023-04-22T06:22:34.020Z,9.30
2023-04-22T06:25:01.086Z,9.40
2023-04-22T06:27:28.014Z,9.30
2023-04-22T06:29:54.992Z,9.40
2023-04-22T06:32:22.213Z,9.40
2023-04-22T06:34:49.307Z,9.40
2023-04-22T06:37:16.549Z,9.40
2023-04-22T06:39:44.241Z,9.40
2023-04-22T06:42:43.114Z,9.40
2023-04-22T06:45:36.371Z,9.40
2023-04-22T06:48:29.391Z,9.50
2023-04-22T06:51:14.904Z,9.40
2023-04-22T06:53:41.972Z,9.50
2023-04-22T06:56:08.943Z,9.50
2023-04-22T06:58:35.983Z,9.50
2023-04-22T07:01:03.158Z,9.50
2023-04-22T07:03:30.295Z,9.50
2023-04-22T07:06:05.540Z,9.40
2023-04-22T07:08:33.823Z,9.50
2023-04-22T07:11:00.915Z,9.40
2023-04-22T07:13:37.670Z,9.40
2023-04-22T07:16:04.735Z,9.40
2023-04-22T07:18:32.095Z,9.40
2023-04-22T07:20:59.133Z,9.40
2023-04-22T07:23:26.128Z,9.40
2023-04-22T07:25:53.083Z,9.40
2023-04-22T07:28:20.067Z,9.40
2023-04-22T07:30:47.006Z,9.40
2023-04-22T07:33:14.146Z,9.40
2023-04-22T07:35:41.474Z,9.40
2023-04-22T07:38:09.594Z,9.50
2023-04-22T07:40:37.313Z,9.50
2023-04-22T07:43:05.802Z,9.50
2023-04-22T07:45:33.375Z,9.60
2023-04-22T07:48:00.495Z,9.60
2023-04-22T07:50:27.440Z,9.70
2023-04-22T07:52:54.406Z,9.80
2023-04-22T07:55:21.470Z,9.90
2023-04-22T07:57:48.476Z,9.90
2023-04-22T08:00:15.671Z,9.90
2023-04-22T08:02:44.109Z,10.00
2023-04-22T08:05:11.799Z,10.00
2023-04-22T08:07:38.872Z,10.00
2023-04-22T08:10:06.426Z,10.00
2023-04-22T08:12:33.369Z,10.00
2023-04-22T08:15:00.358Z,10.00
2023-04-22T08:17:32.210Z,10.00
2023-04-22T08:19:59.462Z,10.00
2023-04-22T08:22:27.593Z,10.00
2023-04-22T08:24:54.571Z,9.90
2023-04-22T08:27:22.040Z,9.90
2023-04-22T08:29:49.042Z,9.90
2023-04-22T08:32:16.288Z,10.00
2023-04-22T08:34:43.977Z,10.00
2023-04-22T08:37:11.515Z,10.10
2023-04-22T08:39:40.170Z,10.10
2023-04-22T08:42:07.803Z,10.20
2023-04-22T08:44:35.823Z,10.20
2023-04-22T08:47:03.575Z,10.30
2023-04-22T08:49:30.827Z,10.30
2023-04-22T08:51:57.793Z,10.40
2023-04-22T08:54:24.755Z,10.50
2023-04-22T08:56:51.977Z,10.50
2023-04-22T08:59:19.496Z,10.50
2023-04-22T09:01:57.037Z,10.60
2023-04-22T09:04:27.087Z,10.60
2023-04-22T09:06:54.095Z,10.60
2023-04-22T09:09:21.118Z,10.50
2023-04-22T09:11:48.184Z,10.50
2023-04-22T09:14:16.221Z,10.50
2023-04-22T09:16:47.144Z,10.50
2023-04-22T09:19:15.007Z,10.50
2023-04-22T09:21:42.145Z,10.50
2023-04-22T09:24:16.202Z,10.40
2023-04-22T09:26:43.116Z,10.50
2023-04-22T09:29:13.780Z,10.50
2023-04-22T09:31:41.082Z,10.50
2023-04-22T09:34:08.412Z,10.60
2023-04-22T09:36:37.783Z,10.60
2023-04-22T09:39:07.466Z,10.70
2023-04-22T09:41:35.685Z,10.80
2023-04-22T09:44:04.080Z,11.10
2023-04-22T09:46:31.735Z,11.50
2023-04-22T09:48:59.557Z,11.90
2023-04-22T09:51:30.670Z,12.20
2023-04-22T09:53:59.499Z,12.30
2023-04-22T09:56:45.070Z,12.40
2023-04-22T09:59:12.578Z,12.50
2023-04-22T10:01:41.342Z,12.50
2023-04-22T10:04:10.030Z,12.40
2023-04-22T10:06:37.618Z,12.40
2023-04-22T10:09:06.106Z,12.30
2023-04-22T10:11:34.316Z,12.20
2023-04-22T10:14:01.341Z,12.10
2023-04-22T10:16:29.810Z,12.00
2023-04-22T10:18:56.956Z,12.00
2023-04-22T10:21:27.680Z,12.00
2023-04-22T10:23:54.581Z,12.10
2023-04-22T10:26:41.517Z,12.20
2023-04-22T10:29:12.969Z,12.30
2023-04-22T10:31:39.929Z,12.40
2023-04-22T10:34:11.795Z,12.50
2023-04-22T10:36:57.554Z,12.60
2023-04-22T10:39:25.359Z,12.60
2023-04-22T10:42:12.810Z,12.70
2023-04-22T10:44:53.121Z,12.80
2023-04-22T10:47:27.104Z,12.70
2023-04-22T10:50:12.501Z,12.80
2023-04-22T10:52:40.518Z,12.80
2023-04-22T10:55:07.643Z,12.80
2023-04-22T10:57:40.204Z,12.80
2023-04-22T11:00:17.617Z,12.80
2023-04-22T11:02:45.318Z,12.90
2023-04-22T11:05:20.046Z,12.90
2023-04-22T11:07:50.590Z,12.90
2023-04-22T11:10:43.053Z,13.00
2023-04-22T11:13:15.427Z,13.10
2023-04-22T11:15:44.607Z,13.30
2023-04-22T11:18:13.826Z,13.40
2023-04-22T11:20:40.840Z,13.60
2023-04-22T11:23:07.795Z,13.70
2023-04-22T11:25:34.825Z,13.80
2023-04-22T11:28:02.568Z,13.70
2023-04-22T11:30:31.601Z,13.70
2023-04-22T11:33:00.002Z,13.70
2023-04-22T11:35:28.727Z,13.70
2023-04-22T11:37:56.809Z,13.60
2023-04-22T11:40:31.231Z,13.60
2023-04-22T11:43:00.149Z,13.60
2023-04-22T11:45:28.015Z,13.60
2023-04-22T11:47:55.416Z,13.60
2023-04-22T11:50:26.846Z,13.60
2023-04-22T11:53:04.103Z,13.60
2023-04-22T11:55:34.918Z,13.60
2023-04-22T11:58:12.436Z,13.60
2023-04-22T12:00:49.467Z,13.50
2023-04-22T12:03:19.750Z,13.50
2023-04-22T12:05:52.616Z,13.40
2023-04-22T12:08:20.818Z,13.40
2023-04-22T12:10:52.676Z,13.40
2023-04-22T12:13:22.131Z,13.40
2023-04-22T12:15:49.282Z,13.40
2023-04-22T12:18:16.233Z,13.40
2023-04-22T12:20:43.108Z,13.40
2023-04-22T12:23:14.493Z,13.40
2023-04-22T12:25:41.870Z,13.40
2023-04-22T12:28:08.889Z,13.50
2023-04-22T12:30:36.005Z,13.50
2023-04-22T12:33:02.986Z,13.50
2023-04-22T12:35:29.929Z,13.60
2023-04-22T12:37:56.904Z,13.60
2023-04-22T12:40:24.017Z,13.60
2023-04-22T12:42:50.911Z,13.70
2023-04-22T12:45:18.280Z,13.70
2023-04-22T12:47:46.677Z,13.70
2023-04-22T12:50:13.725Z,13.70
2023-04-22T12:52:43.200Z,13.70
2023-04-22T12:57:37.547Z,13.80
2023-04-22T13:00:06.931Z,13.90
2023-04-22T13:02:34.068Z,14.00
2023-04-22T13:05:01.245Z,14.00
2023-04-22T13:07:28.149Z,14.00
2023-04-22T13:09:55.177Z,13.90
2023-04-22T13:12:22.188Z,13.80
2023-04-22T13:14:49.140Z,13.70
2023-04-22T13:17:16.360Z,13.70
2023-04-22T13:19:43.355Z,13.70
2023-04-22T13:22:10.283Z,13.60
2023-04-22T13:24:37.257Z,13.60
2023-04-22T13:27:04.245Z,13.60
2023-04-22T13:29:33.690Z,13.50
2023-04-22T13:32:00.742Z,13.50
2023-04-22T13:34:27.718Z,13.50
2023-04-22T13:36:54.686Z,13.40
2023-04-22T13:39:22.093Z,13.40
2023-04-22T13:41:49.100Z,13.40
2023-04-22T13:44:16.151Z,13.50
2023-04-22T13:46:43.594Z,13.50
2023-04-22T13:49:11.004Z,13.50
2023-04-22T13:51:38.142Z,13.50
2023-04-22T13:54:05.790Z,13.50
2023-04-22T13:56:34.858Z,13.60
2023-04-22T13:59:01.812Z,13.60
2023-04-22T14:01:28.725Z,13.60
2023-04-22T14:03:55.812Z,13.60
2023-04-22T14:06:22.908Z,13.70
2023-04-22T14:08:49.890Z,13.60
2023-04-22T14:11:16.923Z,13.60
2023-04-22T14:13:45.205Z,13.60
2023-04-22T14:16:12.629Z,13.50
2023-04-22T14:18:40.420Z,13.60
2023-04-22T14:21:09.437Z,13.60
2023-04-22T14:23:37.112Z,13.70
2023-04-22T14:26:04.277Z,13.70
2023-04-22T14:28:31.212Z,13.70
2023-04-22T14:30:58.186Z,13.70
2023-04-22T14:33:26.038Z,13.70
2023-04-22T14:35:53.193Z,13.80
2023-04-22T14:38:21.247Z,13.80
2023-04-22T14:40:48.216Z,13.80
2023-04-22T14:43:16.051Z,13.80
2023-04-22T14:45:42.957Z,13.80
2023-04-22T14:48:09.964Z,13.70
2023-04-22T14:50:37.050Z,13.70
2023-04-22T14:53:04.130Z,13.60
2023-04-22T14:55:31.568Z,13.60
2023-04-22T14:57:59.019Z,13.60
2023-04-22T15:00:26.571Z,13.50
2023-04-22T15:02:54.338Z,13.40
2023-04-22T15:05:23.518Z,13.40
2023-04-22T15:07:51.195Z,13.40
2023-04-22T15:10:18.231Z,13.30
2023-04-22T15:12:45.349Z,13.30
2023-04-22T15:15:18.840Z,13.20
2023-04-22T15:17:46.046Z,13.20
2023-04-22T15:20:13.153Z,13.10
2023-04-22T15:22:43.210Z,13.10
2023-04-22T15:25:10.606Z,13.00
2023-04-22T15:27:38.208Z,12.90
2023-04-22T15:30:06.043Z,12.90
2023-04-22T15:32:33.154Z,12.80
2023-04-22T15:35:00.251Z,12.80
2023-04-22T15:37:27.224Z,12.70
2023-04-22T15:39:54.208Z,12.70
2023-04-22T15:42:21.221Z,12.60
2023-04-22T15:44:49.317Z,12.60
2023-04-22T15:47:16.672Z,12.50
2023-04-22T15:49:43.940Z,12.50
2023-04-22T15:52:10.940Z,12.40
2023-04-22T15:54:37.814Z,12.40
2023-04-22T15:57:04.758Z,12.40
2023-04-22T15:59:31.681Z,12.30
2023-04-22T16:01:58.743Z,12.30
2023-04-22T16:04:26.090Z,12.30
2023-04-22T16:06:53.468Z,12.30
2023-04-22T16:09:20.462Z,12.30
2023-04-22T16:11:47.383Z,12.30
2023-04-22T16:14:14.813Z,12.30
2023-04-22T16:16:41.771Z,12.30
2023-04-22T16:19:08.926Z,12.30
2023-04-22T16:21:36.023Z,12.30
2023-04-22T16:24:02.998Z,12.30
2023-04-22T16:26:29.906Z,12.30
2023-04-22T16:28:56.908Z,12.30
2023-04-22T16:31:23.828Z,12.30
2023-04-22T16:33:51.447Z,12.30
2023-04-22T16:36:18.383Z,12.30
2023-04-22T16:38:45.444Z,12.30
2023-04-22T16:41:12.342Z,12.30
2023-04-22T16:43:41.075Z,12.30
2023-04-22T16:46:08.405Z,12.30
2023-04-22T16:48:35.967Z,12.20
2023-04-22T16:51:03.082Z,12.20
2023-04-22T16:53:30.541Z,12.20
2023-04-22T16:55:57.459Z,12.20
2023-04-22T16:58:24.540Z,12.10
2023-04-22T17:00:51.429Z,12.10
2023-04-22T17:03:18.554Z,12.00
2023-04-22T17:05:45.581Z,12.00
2023-04-22T17:08:12.662Z,11.90
2023-04-22T17:10:45.083Z,11.90
2023-04-22T17:13:13.389Z,11.90
2023-04-22T17:15:40.725Z,11.90
2023-04-22T17:18:08.094Z,11.90
2023-04-22T17:20:35.826Z,11.90
2023-04-22T17:23:03.218Z,11.90
2023-04-22T17:25:31.090Z,11.90
2023-04-22T17:27:58.006Z,11.90
2023-04-22T17:30:25.085Z,11.90
2023-04-22T17:32:52.068Z,11.90
2023-04-22T17:35:19.003Z,11.90
2023-04-22T17:37:45.999Z,11.80
2023-04-22T17:40:12.988Z,11.80
2023-04-22T17:42:45.643Z,11.80
2023-04-22T17:45:13.340Z,11.80
2023-04-22T17:47:40.370Z,11.80
2023-04-22T17:50:07.821Z,11.70
2023-04-22T17:52:34.740Z,11.80
2023-04-22T17:55:01.766Z,11.80
2023-04-22T17:57:28.650Z,11.80
2023-04-22T17:59:55.573Z,11.80
2023-04-22T18:02:22.744Z,11.80
2023-04-22T18:04:49.740Z,11.80
2023-04-22T18:07:16.997Z,11.70
2023-04-22T18:09:44.023Z,11.70
2023-04-22T18:12:11.060Z,11.70
2023-04-22T18:14:38.212Z,11.70
2023-04-22T18:17:05.236Z,11.70
2023-04-22T18:19:35.170Z,11.70
2023-04-22T18:22:02.142Z,11.70
2023-04-22T18:24:29.163Z,11.70
2023-04-22T18:26:56.512Z,11.70
2023-04-22T18:29:23.562Z,11.70
2023-04-22T18:31:50.948Z,11.70
2023-04-22T18:34:18.020Z,11.70
2023-04-22T18:36:44.932Z,11.70
2023-04-22T18:39:11.876Z,11.70
2023-04-22T18:41:39.998Z,11.70
2023-04-22T18:44:07.047Z,11.70
2023-04-22T18:46:34.168Z,11.70
2023-04-22T18:49:01.234Z,11.70
2023-04-22T18:51:29.933Z,11.60
2023-04-22T18:53:57.242Z,11.60
2023-04-22T18:56:24.241Z,11.60
2023-04-22T18:58:51.462Z,11.50
2023-04-22T19:01:20.495Z,11.50
2023-04-22T19:03:47.826Z,11.50
2023-04-22T19:06:14.914Z,11.50
2023-04-22T19:08:41.868Z,11.50
2023-04-22T19:11:08.873Z,11.40
2023-04-22T19:13:38.672Z,11.50
2023-04-22T19:16:05.765Z,11.50
2023-04-22T19:18:32.861Z,11.50
2023-04-22T19:21:01.251Z,11.40
2023-04-22T19:23:28.186Z,11.40
2023-04-22T19:25:55.165Z,11.40
2023-04-22T19:28:22.077Z,11.40
2023-04-22T19:30:49.043Z,11.40
2023-04-22T19:33:18.491Z,11.40
2023-04-22T19:35:45.887Z,11.40
2023-04-22T19:38:16.361Z,11.30
2023-04-22T19:40:43.438Z,11.30
2023-04-22T19:43:11.342Z,11.30
2023-04-22T19:45:38.370Z,11.30
2023-04-22T19:48:05.814Z,11.30
2023-04-22T19:50:34.402Z,11.20
2023-04-22T19:53:03.759Z,11.20
2023-04-22T19:55:31.469Z,11.20
2023-04-22T19:57:59.178Z,11.10
2023-04-22T20:00:26.238Z,11.10
2023-04-22T20:02:53.436Z,11.00
2023-04-22T20:05:21.159Z,11.00
2023-04-22T20:07:49.330Z,11.00
2023-04-22T20:10:16.420Z,11.00
2023-04-22T20:12:44.572Z,11.00
2023-04-22T20:15:12.336Z,10.90
2023-04-22T20:17:39.588Z,10.90
2023-04-22T20:20:08.382Z,10.90
2023-04-22T20:22:35.401Z,10.90
2023-04-22T20:25:08.694Z,10.80
2023-04-22T20:27:37.076Z,10.80
2023-04-22T20:30:05.435Z,10.80
2023-04-22T20:32:32.558Z,10.80
2023-04-22T20:35:00.434Z,10.80
2023-04-22T20:37:28.675Z,10.80
2023-04-22T20:39:56.441Z,10.80
2023-04-22T20:42:23.439Z,10.80
2023-04-22T20:44:50.382Z,10.80
2023-04-22T20:47:17.413Z,10.80
2023-04-22T20:49:44.746Z,10.80
2023-04-22T20:52:12.683Z,10.80
2023-04-22T20:54:40.000Z,10.80
2023-04-22T20:57:07.408Z,10.80
2023-04-22T20:59:34.944Z,10.80
2023-04-22T21:02:04.340Z,10.80
2023-04-22T21:04:31.830Z,10.80
2023-04-22T21:07:04.300Z,10.70
2023-04-22T21:09:32.434Z,10.80
2023-04-22T21:11:59.599Z,10.80
2023-04-22T21:14:27.174Z,10.80
2023-04-22T21:17:01.549Z,10.80
2023-04-22T21:19:38.153Z,10.80
2023-04-22T21:22:06.212Z,10.70
2023-04-22T21:24:35.274Z,10.70
2023-04-22T21:27:03.049Z,10.70
2023-04-22T21:29:30.468Z,10.70
2023-04-22T21:32:08.282Z,10.80
2023-04-22T21:34:39.760Z,10.70
2023-04-22T21:37:07.803Z,10.70
2023-04-22T21:39:35.002Z,10.70
2023-04-22T21:42:08.886Z,10.70
2023-04-22T21:44:37.692Z,10.70
2023-04-22T21:47:05.996Z,10.70
2023-04-22T21:49:32.965Z,10.70
2023-04-22T21:51:59.998Z,10.70
2023-04-22T21:54:27.076Z,10.70
2023-04-22T21:56:54.111Z,10.60
2023-04-22T21:59:21.109Z,10.60
2023-04-22T22:01:48.390Z,10.60
2023-04-22T22:04:16.383Z,10.60
2023-04-22T22:06:45.220Z,10.50
2023-04-22T22:09:12.475Z,10.50
2023-04-22T22:11:39.512Z,10.50
2023-04-22T22:14:10.262Z,10.50
2023-04-22T22:16:40.434Z,10.50
2023-04-22T22:19:11.211Z,10.40
2023-04-22T22:21:38.745Z,10.40
2023-04-22T22:24:06.055Z,10.30
2023-04-22T22:26:36.687Z,10.30
2023-04-22T22:29:03.849Z,10.30
2023-04-22T22:31:30.867Z,10.30
2023-04-22T22:33:58.854Z,10.20
2023-04-22T22:36:25.992Z,10.20
2023-04-22T22:39:02.497Z,10.20
2023-04-22T22:41:34.143Z,10.20
2023-04-22T22:44:01.235Z,10.20
2023-04-22T22:46:28.263Z,10.20
2023-04-22T22:48:55.782Z,10.10
2023-04-22T22:51:22.891Z,10.10
2023-04-22T22:53:49.986Z,10.10
2023-04-22T22:56:18.204Z,10.10
2023-04-22T22:58:46.322Z,10.10
2023-04-22T23:01:13.334Z,10.10
2023-04-22T23:03:49.069Z,10.10
2023-04-22T23:06:16.371Z,10.10
2023-04-22T23:08:43.290Z,10.10
2023-04-22T23:11:10.178Z,10.10
2023-04-22T23:13:37.269Z,10.10
2023-04-22T23:16:04.578Z,10.10
2023-04-22T23:18:32.014Z,10.10
2023-04-22T23:21:00.590Z,10.20
2023-04-22T23:23:28.454Z,10.20
2023-04-22T23:25:55.903Z,10.20
2023-04-22T23:28:23.176Z,10.20
2023-04-22T23:30:50.960Z,10.20
2023-04-22T23:33:19.891Z,10.20
2023-04-22T23:35:46.894Z,10.20
2023-04-22T23:38:13.784Z,10.20
2023-04-22T23:40:40.922Z,10.20
2023-04-22T23:43:07.911Z,10.20
2023-04-22T23:45:35.197Z,10.20
2023-04-22T23:48:02.123Z,10.20
2023-04-22T23:50:30.243Z,10.20
2023-04-22T23:52:57.267Z,10.20
2023-04-22T23:55:24.319Z,10.20
2023-04-22T23:57:51.495Z,10.20
